Airport Name : Lisboa

Other Name : Lisbon

ICAO : LPPT

IATA : LIS

FAA :

Latitude : 38.781311

Longitude : -9.135919

Country : Portugal

Local Date and Time : 4/27/2018 3:35:00 AM

 

TAF (Terminal Aerodrome Forecast)

 

METAR (METeorological Aerodrome Report)

LPPT 270230Z 34009KT 9999 FEW011 12/10 Q1018

LPPT 270200Z 34011KT 9999 FEW012 12/10 Q1018

LPPT 270130Z 34012KT 9999 FEW011 12/10 Q1019

LPPT 270100Z 34011KT 9999 SCT011 12/10 Q1019

LPPT 270030Z 34011KT 9999 SCT011 12/10 Q1019

LPPT 270000Z 34012KT 9999 FEW012 12/10 Q1019

LPPT 262330Z 34011KT 9999 FEW012 12/10 Q1019

LPPT 262300Z 34010KT 9999 FEW012 12/10 Q1019